createdAt,value
2019-02-26T00:00:49.506Z,0.00
2019-02-26T00:03:19.444Z,0.00
2019-02-26T00:05:47.904Z,-0.10
2019-02-26T00:08:17.242Z,-0.10
2019-02-26T00:10:43.595Z,-0.10
2019-02-26T00:13:10.828Z,-0.20
2019-02-26T00:15:38.563Z,-0.20
2019-02-26T00:18:09.481Z,-0.20
2019-02-26T00:20:37.214Z,-0.30
2019-02-26T00:23:05.205Z,-0.30
2019-02-26T00:25:32.356Z,-0.40
2019-02-26T00:27:59.478Z,-0.30
2019-02-26T00:30:26.614Z,-0.30
2019-02-26T00:32:55.472Z,-0.30
2019-02-26T00:35:24.954Z,-0.40
2019-02-26T00:37:53.476Z,-0.30
2019-02-26T00:40:21.040Z,-0.30
2019-02-26T00:42:50.227Z,-0.30
2019-02-26T00:45:22.254Z,-0.30
2019-02-26T00:47:46.542Z,-0.40
2019-02-26T00:50:14.251Z,-0.40
2019-02-26T00:52:42.684Z,-0.30
2019-02-26T00:55:09.960Z,-0.20
2019-02-26T00:57:38.802Z,0.00
2019-02-26T01:00:09.925Z,0.10
2019-02-26T01:02:37.513Z,0.10
2019-02-26T01:05:06.300Z,0.20
2019-02-26T01:07:34.215Z,0.10
2019-02-26T01:10:01.324Z,0.20
2019-02-26T01:12:28.577Z,0.30
2019-02-26T01:14:55.757Z,0.50
2019-02-26T01:17:22.893Z,0.50
2019-02-26T01:19:50.116Z,0.60
2019-02-26T01:22:17.369Z,0.60
2019-02-26T01:24:44.635Z,0.60
2019-02-26T01:27:11.850Z,0.60
2019-02-26T01:29:38.978Z,0.60
2019-02-26T01:32:08.901Z,0.60
2019-02-26T01:34:35.377Z,0.50
2019-02-26T01:37:03.148Z,0.50
2019-02-26T01:39:31.752Z,0.40
2019-02-26T01:41:58.989Z,0.30
2019-02-26T01:44:30.182Z,0.40
2019-02-26T01:46:56.244Z,0.30
2019-02-26T01:49:26.635Z,0.30
2019-02-26T01:51:53.978Z,0.10
2019-02-26T01:54:21.205Z,0.00
2019-02-26T01:56:48.360Z,-0.10
2019-02-26T01:59:18.160Z,-0.20
2019-02-26T02:01:46.485Z,-0.30
2019-02-26T02:04:14.965Z,-0.40
2019-02-26T02:06:42.932Z,-0.40
2019-02-26T02:09:13.435Z,-0.40
2019-02-26T02:11:40.747Z,-0.50
2019-02-26T02:14:08.632Z,-0.50
2019-02-26T02:16:37.251Z,-0.50
2019-02-26T02:19:04.497Z,-0.60
2019-02-26T02:21:33.780Z,-0.60
2019-02-26T02:24:01.037Z,-0.60
2019-02-26T02:26:28.196Z,-0.60
2019-02-26T02:28:55.438Z,-0.60
2019-02-26T02:31:24.478Z,-0.70
2019-02-26T02:33:51.615Z,-0.60
2019-02-26T02:36:21.082Z,-0.70
2019-02-26T02:38:47.901Z,-0.70
2019-02-26T02:41:15.177Z,-0.80
2019-02-26T02:43:42.335Z,-0.80
2019-02-26T02:46:09.579Z,-0.90
2019-02-26T02:48:36.816Z,-1.00
2019-02-26T02:51:05.536Z,-1.00
2019-02-26T02:53:33.093Z,-1.00
2019-02-26T02:56:00.347Z,-1.00
2019-02-26T02:58:27.665Z,-1.00
2019-02-26T03:00:57.070Z,-1.00
2019-02-26T03:03:24.037Z,-1.00
2019-02-26T03:05:51.144Z,-1.00
2019-02-26T03:08:19.501Z,-0.90
2019-02-26T03:10:47.585Z,-1.00
2019-02-26T03:13:16.784Z,-1.00
2019-02-26T03:15:44.005Z,-1.10
2019-02-26T03:18:12.519Z,-1.00
2019-02-26T03:20:40.504Z,-0.80
2019-02-26T03:23:09.718Z,-0.70
2019-02-26T03:25:36.926Z,-0.70
2019-02-26T03:28:04.150Z,-0.70
2019-02-26T03:30:37.931Z,-0.70
2019-02-26T03:33:04.533Z,-0.60
2019-02-26T03:35:29.718Z,-0.60
2019-02-26T03:37:58.003Z,-0.80
2019-02-26T03:40:27.101Z,-0.90
2019-02-26T03:42:55.201Z,-1.00
2019-02-26T03:45:24.892Z,-1.00
2019-02-26T03:47:51.532Z,-1.10
2019-02-26T03:50:18.665Z,-1.10
2019-02-26T03:52:45.903Z,-1.20
2019-02-26T03:55:15.391Z,-1.10
2019-02-26T03:57:46.954Z,-1.10
2019-02-26T04:00:14.110Z,-1.20
2019-02-26T04:02:43.296Z,-1.30
2019-02-26T04:05:10.509Z,-1.30
2019-02-26T04:07:37.771Z,-1.30
2019-02-26T04:10:05.091Z,-1.40
2019-02-26T04:12:35.818Z,-1.30
2019-02-26T04:15:01.512Z,-1.30
2019-02-26T04:17:30.725Z,-1.30
2019-02-26T04:19:57.919Z,-1.30
2019-02-26T04:22:26.634Z,-1.30
2019-02-26T04:25:00.643Z,-1.30
2019-02-26T04:27:50.601Z,-1.20
2019-02-26T04:31:05.723Z,-1.30
2019-02-26T04:34:26.657Z,-1.40
2019-02-26T04:37:32.713Z,-1.40
2019-02-26T04:40:17.445Z,-1.40
2019-02-26T04:43:10.469Z,-1.40
2019-02-26T04:46:34.321Z,-1.40
2019-02-26T04:49:01.143Z,-1.40
2019-02-26T04:51:28.381Z,-1.40
2019-02-26T04:53:56.128Z,-1.40
2019-02-26T04:56:24.895Z,-1.40
2019-02-26T04:58:52.376Z,-1.40
2019-02-26T05:01:19.509Z,-1.40
2019-02-26T05:03:46.743Z,-1.40
2019-02-26T05:06:13.984Z,-1.40
2019-02-26T05:08:42.844Z,-1.30
2019-02-26T05:11:14.878Z,-1.40
2019-02-26T05:13:39.409Z,-1.40
2019-02-26T05:16:06.661Z,-1.50
2019-02-26T05:18:34.584Z,-1.50
2019-02-26T05:21:04.537Z,-1.50
2019-02-26T05:23:33.385Z,-1.50
2019-02-26T05:26:05.108Z,-1.50
2019-02-26T05:28:29.890Z,-1.50
2019-02-26T05:30:58.459Z,-1.50
2019-02-26T05:33:27.803Z,-1.40
2019-02-26T05:35:54.906Z,-1.40
2019-02-26T05:38:23.990Z,-1.40
2019-02-26T05:40:54.052Z,-1.40
2019-02-26T05:43:23.057Z,-1.40
2019-02-26T05:45:54.045Z,-1.40
2019-02-26T05:48:21.303Z,-1.40
2019-02-26T05:50:49.671Z,-1.30
2019-02-26T05:53:16.915Z,-1.30
2019-02-26T05:55:47.459Z,-1.30
2019-02-26T05:58:15.808Z,-1.30
2019-02-26T06:00:42.339Z,-1.30
2019-02-26T06:03:12.271Z,-1.30
2019-02-26T06:05:41.232Z,-1.30
2019-02-26T06:08:07.974Z,-1.30
2019-02-26T06:10:35.133Z,-1.30
2019-02-26T06:13:04.846Z,-1.30
2019-02-26T06:15:34.056Z,-1.20
2019-02-26T06:18:00.657Z,-1.10
2019-02-26T06:20:29.265Z,-1.00
2019-02-26T06:23:00.977Z,-0.90
2019-02-26T06:25:35.395Z,-0.70
2019-02-26T06:28:06.899Z,-0.60
2019-02-26T06:30:31.819Z,-0.50
2019-02-26T06:33:02.037Z,-0.40
2019-02-26T06:35:27.994Z,-0.30
2019-02-26T06:37:55.191Z,-0.20
2019-02-26T06:40:22.499Z,-0.10
2019-02-26T06:42:49.634Z,0.10
2019-02-26T06:45:17.142Z,0.30
2019-02-26T06:47:45.752Z,0.50
2019-02-26T06:50:15.797Z,0.80
2019-02-26T06:52:44.758Z,1.00
2019-02-26T06:55:12.175Z,1.30
2019-02-26T06:57:41.435Z,1.50
2019-02-26T07:00:10.746Z,1.80
2019-02-26T07:02:38.135Z,2.10
2019-02-26T07:05:07.892Z,2.50
2019-02-26T07:07:35.040Z,2.90
2019-02-26T07:10:02.301Z,3.50
2019-02-26T07:12:29.615Z,4.30
2019-02-26T07:14:58.120Z,4.80
2019-02-26T07:17:26.938Z,5.50
2019-02-26T07:19:55.921Z,5.50
2019-02-26T07:22:23.767Z,5.50
2019-02-26T07:24:53.983Z,5.80
2019-02-26T07:27:21.397Z,5.60
2019-02-26T07:29:52.170Z,6.10
2019-02-26T07:32:19.649Z,6.70
2019-02-26T07:34:47.862Z,6.30
2019-02-26T07:37:15.918Z,5.90
2019-02-26T07:39:44.344Z,6.80
2019-02-26T07:42:14.693Z,7.30
2019-02-26T07:44:41.568Z,8.00
2019-02-26T07:47:10.854Z,7.80
2019-02-26T07:49:38.018Z,7.50
2019-02-26T07:52:06.644Z,7.30
2019-02-26T07:54:34.459Z,7.30
2019-02-26T07:57:02.666Z,7.20
2019-02-26T07:59:32.347Z,7.30
2019-02-26T08:02:01.244Z,7.20
2019-02-26T08:04:28.539Z,7.20
2019-02-26T08:06:57.248Z,7.20
2019-02-26T08:09:25.158Z,7.10
2019-02-26T08:11:52.475Z,7.10
2019-02-26T08:14:20.995Z,7.50
2019-02-26T08:16:51.357Z,8.50
2019-02-26T08:19:18.146Z,9.30
2019-02-26T08:21:45.945Z,11.10
2019-02-26T08:24:14.870Z,13.00
2019-02-26T08:26:43.367Z,14.50
2019-02-26T08:29:12.460Z,15.80
2019-02-26T08:31:42.527Z,16.90
2019-02-26T08:34:12.667Z,17.20
2019-02-26T08:36:38.153Z,16.40
2019-02-26T08:39:06.682Z,16.20
2019-02-26T08:41:33.941Z,16.30
2019-02-26T08:44:01.290Z,17.30
2019-02-26T08:46:28.543Z,16.70
2019-02-26T08:48:55.809Z,17.10
2019-02-26T08:51:22.936Z,17.80
2019-02-26T08:53:51.897Z,19.20
2019-02-26T08:56:23.674Z,20.70
2019-02-26T08:58:48.499Z,19.40
2019-02-26T09:01:15.730Z,19.20
2019-02-26T09:03:42.979Z,18.50
2019-02-26T09:06:13.289Z,16.90
2019-02-26T09:08:40.673Z,16.40
2019-02-26T09:11:10.874Z,15.60
2019-02-26T09:13:38.899Z,14.60
2019-02-26T09:16:07.972Z,14.70
2019-02-26T09:18:37.921Z,14.20
2019-02-26T09:21:04.463Z,13.90
2019-02-26T09:23:32.849Z,13.80
2019-02-26T09:26:02.070Z,13.60
2019-02-26T09:28:30.101Z,13.50
2019-02-26T09:31:01.051Z,13.60
2019-02-26T09:33:32.528Z,13.90
2019-02-26T09:35:56.854Z,14.00
2019-02-26T09:38:26.838Z,13.80
2019-02-26T09:40:54.670Z,13.60
2019-02-26T09:43:24.388Z,13.50
2019-02-26T09:45:52.903Z,13.60
2019-02-26T09:48:21.983Z,13.50
2019-02-26T09:50:49.391Z,13.40
2019-02-26T09:53:16.663Z,13.00
2019-02-26T09:55:43.889Z,13.10
2019-02-26T09:58:11.063Z,13.20
2019-02-26T10:00:38.221Z,13.50
2019-02-26T10:03:07.909Z,13.80
2019-02-26T10:05:34.533Z,14.30
2019-02-26T10:08:03.462Z,14.90
2019-02-26T10:10:33.547Z,16.10
2019-02-26T10:13:04.155Z,16.60
2019-02-26T10:15:29.317Z,16.50
2019-02-26T10:17:58.800Z,16.50
2019-02-26T10:20:28.669Z,16.20
2019-02-26T10:22:57.541Z,15.80
2019-02-26T10:25:25.725Z,15.40
2019-02-26T10:27:53.045Z,15.70
2019-02-26T10:30:20.186Z,15.60
2019-02-26T10:32:47.444Z,15.50
2019-02-26T10:35:18.451Z,16.20
2019-02-26T10:37:47.130Z,17.90
2019-02-26T10:40:16.983Z,19.80
2019-02-26T10:42:43.812Z,20.50
2019-02-26T10:45:11.430Z,21.30
2019-02-26T10:47:38.672Z,23.00
2019-02-26T10:50:10.031Z,25.50
2019-02-26T10:52:37.241Z,25.90
2019-02-26T10:55:04.655Z,27.00
2019-02-26T10:57:33.723Z,28.20
2019-02-26T11:00:02.586Z,28.70
2019-02-26T11:02:30.200Z,29.00
2019-02-26T11:04:57.568Z,29.40
2019-02-26T11:07:26.344Z,29.90
2019-02-26T11:09:56.242Z,29.80
2019-02-26T11:12:25.180Z,29.90
2019-02-26T11:14:52.211Z,29.50
2019-02-26T11:17:20.926Z,29.30
2019-02-26T11:19:48.481Z,29.00
2019-02-26T11:22:18.163Z,29.20
2019-02-26T11:24:44.755Z,29.20
2019-02-26T11:27:12.039Z,28.60
2019-02-26T11:29:40.749Z,27.00
2019-02-26T11:32:10.269Z,26.40
2019-02-26T11:34:38.294Z,26.30
2019-02-26T11:37:08.840Z,25.30
2019-02-26T11:39:34.838Z,24.20
2019-02-26T11:42:02.066Z,24.60
2019-02-26T11:44:29.280Z,24.70
2019-02-26T11:46:56.697Z,25.60
2019-02-26T11:49:23.936Z,26.90
2019-02-26T11:51:51.192Z,28.30
2019-02-26T11:54:18.399Z,29.20
2019-02-26T11:56:47.400Z,29.80
2019-02-26T11:59:16.384Z,30.30
2019-02-26T12:01:43.856Z,30.70
2019-02-26T12:04:13.960Z,30.90
2019-02-26T12:06:40.335Z,31.30
2019-02-26T12:09:08.787Z,31.20
2019-02-26T12:11:36.680Z,31.10
2019-02-26T12:14:03.899Z,30.70
2019-02-26T12:16:31.200Z,31.10
2019-02-26T12:18:59.324Z,30.20
2019-02-26T12:21:29.825Z,29.30
2019-02-26T12:23:58.023Z,29.30
2019-02-26T12:26:27.944Z,28.90
2019-02-26T12:28:57.149Z,28.90
2019-02-26T12:31:25.315Z,28.80
2019-02-26T12:33:53.107Z,28.60
2019-02-26T12:36:21.264Z,28.30
2019-02-26T12:38:50.252Z,27.20
2019-02-26T12:41:19.092Z,26.80
2019-02-26T12:43:47.129Z,26.50
2019-02-26T12:46:14.349Z,26.50
2019-02-26T12:48:44.421Z,26.20
2019-02-26T12:51:10.693Z,25.90
2019-02-26T12:53:47.019Z,24.90
2019-02-26T12:56:13.666Z,24.40
2019-02-26T12:58:43.909Z,24.90
2019-02-26T13:01:10.036Z,25.00
2019-02-26T13:03:39.813Z,24.70
2019-02-26T13:06:08.954Z,23.60
2019-02-26T13:08:36.143Z,23.40
2019-02-26T13:11:04.820Z,23.80
2019-02-26T13:13:32.485Z,24.10
2019-02-26T13:15:59.802Z,24.30
2019-02-26T13:18:26.959Z,23.70
2019-02-26T13:20:59.524Z,23.00
2019-02-26T13:23:23.500Z,22.20
2019-02-26T13:25:50.762Z,21.50
2019-02-26T13:28:17.917Z,21.70
2019-02-26T13:30:45.194Z,21.60
2019-02-26T13:33:12.885Z,21.40
2019-02-26T13:35:42.166Z,21.20
2019-02-26T13:38:09.288Z,20.40
2019-02-26T13:40:38.604Z,20.30
2019-02-26T13:43:07.026Z,20.40
2019-02-26T13:45:34.156Z,20.50
2019-02-26T13:48:01.804Z,20.20
2019-02-26T13:50:29.240Z,19.90
2019-02-26T13:52:56.544Z,19.60
2019-02-26T13:55:23.815Z,18.90
2019-02-26T13:57:50.923Z,18.50
2019-02-26T14:00:26.008Z,18.30
2019-02-26T14:02:47.875Z,18.10
2019-02-26T14:05:15.112Z,18.30
2019-02-26T14:07:42.764Z,17.80
2019-02-26T14:10:11.822Z,17.70
2019-02-26T14:12:39.159Z,17.60
2019-02-26T14:15:07.293Z,17.70
2019-02-26T14:17:34.656Z,17.70
2019-02-26T14:20:01.890Z,17.30
2019-02-26T14:22:29.060Z,17.30
2019-02-26T14:24:56.407Z,17.40
2019-02-26T14:27:23.666Z,17.30
2019-02-26T14:29:51.017Z,17.20
2019-02-26T14:32:18.277Z,17.00
2019-02-26T14:34:45.533Z,16.80
2019-02-26T14:37:12.768Z,16.70
2019-02-26T14:39:40.010Z,16.60
2019-02-26T14:42:07.290Z,16.70
2019-02-26T14:44:34.531Z,16.50
2019-02-26T14:47:02.088Z,16.40
2019-02-26T14:49:29.394Z,16.30
2019-02-26T14:51:56.750Z,16.20
2019-02-26T14:54:24.020Z,16.10
2019-02-26T14:56:51.264Z,16.00
2019-02-26T14:59:18.545Z,15.80
2019-02-26T15:01:45.768Z,15.70
2019-02-26T15:04:13.034Z,15.60
2019-02-26T15:06:40.155Z,15.50
2019-02-26T15:09:07.616Z,15.30
2019-02-26T15:11:34.871Z,15.30
2019-02-26T15:14:02.467Z,15.30
2019-02-26T15:16:29.799Z,15.30
2019-02-26T15:18:57.074Z,15.20
2019-02-26T15:21:24.399Z,15.10
2019-02-26T15:23:51.652Z,15.10
2019-02-26T15:26:18.934Z,14.90
2019-02-26T15:28:46.318Z,14.80
2019-02-26T15:31:13.565Z,14.80
2019-02-26T15:33:40.906Z,14.70
2019-02-26T15:36:08.187Z,14.60
2019-02-26T15:38:35.440Z,14.60
2019-02-26T15:41:03.186Z,14.50
2019-02-26T15:43:30.533Z,14.40
2019-02-26T15:45:59.838Z,14.40
2019-02-26T15:48:26.943Z,14.30
2019-02-26T15:50:54.177Z,14.30
2019-02-26T15:53:23.400Z,14.20
2019-02-26T15:55:50.476Z,14.10
2019-02-26T15:58:17.762Z,14.00
2019-02-26T16:00:45.012Z,14.00
2019-02-26T16:03:12.290Z,13.80
2019-02-26T16:05:39.468Z,13.80
2019-02-26T16:08:06.971Z,13.60
2019-02-26T16:10:34.325Z,13.50
2019-02-26T16:13:04.441Z,13.40
2019-02-26T16:15:32.625Z,13.30
2019-02-26T16:17:59.918Z,13.20
2019-02-26T16:20:27.437Z,13.00
2019-02-26T16:22:54.669Z,12.90
2019-02-26T16:25:22.034Z,12.70
2019-02-26T16:27:51.628Z,12.50
2019-02-26T16:30:19.012Z,12.40
2019-02-26T16:32:46.359Z,12.20
2019-02-26T16:35:14.256Z,12.00
2019-02-26T16:37:42.131Z,11.80
2019-02-26T16:40:09.514Z,11.70
2019-02-26T16:42:36.806Z,11.50
2019-02-26T16:45:05.038Z,11.30
2019-02-26T16:47:32.627Z,11.20
2019-02-26T16:50:11.735Z,11.00
2019-02-26T16:52:29.070Z,10.80
2019-02-26T16:54:56.336Z,10.70
2019-02-26T16:57:25.706Z,10.50
2019-02-26T16:59:52.891Z,10.40
2019-02-26T17:02:20.216Z,10.20
2019-02-26T17:04:47.592Z,10.00
2019-02-26T17:07:14.855Z,9.80
2019-02-26T17:09:42.114Z,9.60
2019-02-26T17:12:09.423Z,9.50
2019-02-26T17:14:36.679Z,9.40
2019-02-26T17:17:04.493Z,9.30
2019-02-26T17:19:31.835Z,9.10
2019-02-26T17:21:59.006Z,9.00
2019-02-26T17:24:26.301Z,8.80
2019-02-26T17:26:53.555Z,8.70
2019-02-26T17:29:20.950Z,8.60
2019-02-26T17:31:48.191Z,8.50
2019-02-26T17:34:17.662Z,8.40
2019-02-26T17:36:44.578Z,8.30
2019-02-26T17:39:11.800Z,8.20
2019-02-26T17:41:39.045Z,8.00
2019-02-26T17:44:06.395Z,8.00
2019-02-26T17:46:33.632Z,7.90
2019-02-26T17:49:02.861Z,7.80
2019-02-26T17:51:30.088Z,7.70
2019-02-26T17:53:57.239Z,7.70
2019-02-26T17:56:26.316Z,7.60
2019-02-26T17:58:53.608Z,7.60
2019-02-26T18:01:20.892Z,7.50
2019-02-26T18:03:48.200Z,7.40
2019-02-26T18:06:15.399Z,7.40
2019-02-26T18:08:42.675Z,7.30
2019-02-26T18:11:09.987Z,7.20
2019-02-26T18:13:37.160Z,7.10
2019-02-26T18:16:09.176Z,7.00
2019-02-26T18:18:34.428Z,7.00
2019-02-26T18:21:05.720Z,6.90
2019-02-26T18:23:31.279Z,6.90
2019-02-26T18:25:58.436Z,6.80
2019-02-26T18:28:25.715Z,6.60
2019-02-26T18:30:52.954Z,6.60
2019-02-26T18:33:20.225Z,6.60
2019-02-26T18:35:47.476Z,6.50
2019-02-26T18:38:14.738Z,6.50
2019-02-26T18:40:41.969Z,6.40
2019-02-26T18:43:11.624Z,6.30
2019-02-26T18:45:38.374Z,6.30
2019-02-26T18:48:05.657Z,6.30
2019-02-26T18:50:32.820Z,6.30
2019-02-26T18:53:00.012Z,6.30
2019-02-26T18:55:28.830Z,6.30
2019-02-26T18:57:56.569Z,6.30
2019-02-26T19:00:25.954Z,6.50
2019-02-26T19:02:53.484Z,6.60
2019-02-26T19:05:21.058Z,6.70
2019-02-26T19:07:48.932Z,6.80
2019-02-26T19:10:19.381Z,6.80
2019-02-26T19:12:45.380Z,6.90
2019-02-26T19:15:14.782Z,6.90
2019-02-26T19:17:44.430Z,7.00
2019-02-26T19:20:12.712Z,7.00
2019-02-26T19:22:40.966Z,7.00
2019-02-26T19:25:09.169Z,7.00
2019-02-26T19:27:37.018Z,7.10
2019-02-26T19:30:05.555Z,7.00
2019-02-26T19:32:32.867Z,7.00
2019-02-26T19:35:01.004Z,7.00
2019-02-26T19:37:28.930Z,6.80
2019-02-26T19:39:56.209Z,6.70
2019-02-26T19:42:23.436Z,6.60
2019-02-26T19:44:50.739Z,6.40
2019-02-26T19:47:18.006Z,6.40
2019-02-26T19:49:45.310Z,6.40
2019-02-26T19:52:12.625Z,6.50
2019-02-26T19:54:42.030Z,6.70
2019-02-26T19:57:09.027Z,6.80
2019-02-26T19:59:36.377Z,6.80
2019-02-26T20:02:03.564Z,6.80
2019-02-26T20:04:31.574Z,6.90
2019-02-26T20:06:59.760Z,6.90
2019-02-26T20:09:28.028Z,6.90
2019-02-26T20:11:56.880Z,7.00
2019-02-26T20:14:25.097Z,7.00
2019-02-26T20:16:54.397Z,7.00
2019-02-26T20:19:21.703Z,7.00
2019-02-26T20:21:51.491Z,7.00
2019-02-26T20:24:18.239Z,7.00
2019-02-26T20:26:47.626Z,7.10
2019-02-26T20:29:14.988Z,7.10
2019-02-26T20:31:42.644Z,7.20
2019-02-26T20:34:10.004Z,7.20
2019-02-26T20:36:37.528Z,7.20
2019-02-26T20:39:07.921Z,7.20
2019-02-26T20:41:35.214Z,7.30
2019-02-26T20:44:02.658Z,7.30
2019-02-26T20:46:30.042Z,7.30
2019-02-26T20:48:57.299Z,7.30
2019-02-26T20:51:26.831Z,7.30
2019-02-26T20:53:54.447Z,7.30
2019-02-26T20:56:21.698Z,7.30
2019-02-26T20:58:48.995Z,7.30
2019-02-26T21:01:16.304Z,7.30
2019-02-26T21:03:43.605Z,7.30
2019-02-26T21:06:10.903Z,7.30
2019-02-26T21:08:38.184Z,7.30
2019-02-26T21:11:05.463Z,7.30
2019-02-26T21:13:34.842Z,7.30
2019-02-26T21:16:01.918Z,7.30
2019-02-26T21:18:30.692Z,7.30
2019-02-26T21:20:58.386Z,7.30
2019-02-26T21:23:27.486Z,7.30
2019-02-26T21:25:54.790Z,7.30
2019-02-26T21:28:22.069Z,7.30
2019-02-26T21:30:49.346Z,7.30
2019-02-26T21:33:16.677Z,7.30
2019-02-26T21:35:43.901Z,7.20
2019-02-26T21:38:13.063Z,7.10
2019-02-26T21:40:40.233Z,6.80
2019-02-26T21:43:07.568Z,6.60
2019-02-26T21:45:34.717Z,6.40
2019-02-26T21:48:05.169Z,6.30
2019-02-26T21:50:32.424Z,6.30
2019-02-26T21:52:59.936Z,6.30
2019-02-26T21:55:27.334Z,6.30
2019-02-26T21:57:55.275Z,6.30
2019-02-26T22:00:22.696Z,6.40
2019-02-26T22:02:52.313Z,6.40
2019-02-26T22:05:19.022Z,6.50
2019-02-26T22:07:46.268Z,6.50
2019-02-26T22:10:13.790Z,6.50
2019-02-26T22:12:41.155Z,6.50
2019-02-26T22:15:10.894Z,6.60
2019-02-26T22:17:37.862Z,6.70
2019-02-26T22:20:09.166Z,6.70
2019-02-26T22:22:35.517Z,6.70
2019-02-26T22:25:09.297Z,6.80
2019-02-26T22:27:33.746Z,6.80
2019-02-26T22:30:01.054Z,6.80
2019-02-26T22:32:28.343Z,6.70
2019-02-26T22:34:55.483Z,6.80
2019-02-26T22:37:22.693Z,6.80
2019-02-26T22:39:49.802Z,6.90
2019-02-26T22:42:17.013Z,6.90
2019-02-26T22:44:44.316Z,6.80
2019-02-26T22:47:13.473Z,6.70
2019-02-26T22:49:40.831Z,6.60
2019-02-26T22:52:08.029Z,6.40
2019-02-26T22:54:35.344Z,6.30
2019-02-26T22:57:02.609Z,6.20
2019-02-26T22:59:29.735Z,6.20
2019-02-26T23:01:56.989Z,6.10
2019-02-26T23:04:24.235Z,5.90
2019-02-26T23:06:51.423Z,5.80
2019-02-26T23:09:21.071Z,5.70
2019-02-26T23:11:48.771Z,5.70
2019-02-26T23:14:16.311Z,5.60
2019-02-26T23:16:43.779Z,5.60
2019-02-26T23:19:11.208Z,5.60
2019-02-26T23:21:38.444Z,5.60
2019-02-26T23:24:06.024Z,5.60
2019-02-26T23:26:33.558Z,5.70
2019-02-26T23:29:00.787Z,5.70
2019-02-26T23:31:28.023Z,5.80
2019-02-26T23:33:55.378Z,5.80
2019-02-26T23:36:22.529Z,5.80
2019-02-26T23:38:49.761Z,5.80
2019-02-26T23:41:17.048Z,5.80
2019-02-26T23:43:45.388Z,5.90
2019-02-26T23:46:13.249Z,6.00
2019-02-26T23:48:40.884Z,6.00
2019-02-26T23:51:08.634Z,6.10
2019-02-26T23:53:35.945Z,6.10
2019-02-26T23:56:03.166Z,6.10
2019-02-26T23:58:31.117Z,6.10
